sensor_id;sensor_type;location;lat;lon;timestamp;P1;durP1;ratioP1;P2;durP2;ratioP2
22826;SDS011;11580;52.562;13.418;2022-10-16T00:01:28;2.37;;;2.27;;
22826;SDS011;11580;52.562;13.418;2022-10-16T00:03:57;2.67;;;2.57;;
22826;SDS011;11580;52.562;13.418;2022-10-16T00:06:28;2.73;;;2.53;;
22826;SDS011;11580;52.562;13.418;2022-10-16T00:08:56;2.50;;;2.40;;
22826;SDS011;11580;52.562;13.418;2022-10-16T00:11:24;2.23;;;2.10;;
22826;SDS011;11580;52.562;13.418;2022-10-16T00:13:55;2.60;;;2.40;;
22826;SDS011;11580;52.562;13.418;2022-10-16T00:16:24;2.33;;;2.20;;
22826;SDS011;11580;52.562;13.418;2022-10-16T00:18:54;2.43;;;2.33;;
22826;SDS011;11580;52.562;13.418;2022-10-16T00:21:23;3.30;;;2.43;;
22826;SDS011;11580;52.562;13.418;2022-10-16T00:23:53;2.30;;;2.10;;
22826;SDS011;11580;52.562;13.418;2022-10-16T00:26:24;3.60;;;1.93;;
22826;SDS011;11580;52.562;13.418;2022-10-16T00:28:55;2.20;;;2.10;;
22826;SDS011;11580;52.562;13.418;2022-10-16T00:31:23;2.67;;;2.47;;
22826;SDS011;11580;52.562;13.418;2022-10-16T00:33:52;2.33;;;2.23;;
22826;SDS011;11580;52.562;13.418;2022-10-16T00:36:20;2.50;;;2.30;;
22826;SDS011;11580;52.562;13.418;2022-10-16T00:38:49;2.27;;;2.10;;
22826;SDS011;11580;52.562;13.418;2022-10-16T00:41:19;2.07;;;1.97;;
22826;SDS011;11580;52.562;13.418;2022-10-16T00:43:49;2.37;;;2.07;;
22826;SDS011;11580;52.562;13.418;2022-10-16T00:46:20;2.30;;;2.10;;
22826;SDS011;11580;52.562;13.418;2022-10-16T00:48:52;2.03;;;1.93;;
22826;SDS011;11580;52.562;13.418;2022-10-16T00:51:27;2.10;;;2.00;;
22826;SDS011;11580;52.562;13.418;2022-10-16T00:54:00;1.77;;;1.67;;
22826;SDS011;11580;52.562;13.418;2022-10-16T00:56:30;1.93;;;1.83;;
22826;SDS011;11580;52.562;13.418;2022-10-16T00:58:59;2.03;;;1.93;;
22826;SDS011;11580;52.562;13.418;2022-10-16T01:01:31;1.90;;;1.80;;
22826;SDS011;11580;52.562;13.418;2022-10-16T01:03:59;1.97;;;1.87;;
22826;SDS011;11580;52.562;13.418;2022-10-16T01:06:28;2.70;;;1.80;;
22826;SDS011;11580;52.562;13.418;2022-10-16T01:09:13;2.10;;;2.00;;
22826;SDS011;11580;52.562;13.418;2022-10-16T01:11:49;1.83;;;1.73;;
22826;SDS011;11580;52.562;13.418;2022-10-16T01:14:30;2.00;;;1.90;;
22826;SDS011;11580;52.562;13.418;2022-10-16T01:17:10;4.30;;;2.17;;
22826;SDS011;11580;52.562;13.418;2022-10-16T01:19:55;2.70;;;1.60;;
22826;SDS011;11580;52.562;13.418;2022-10-16T01:22:37;1.77;;;1.67;;
22826;SDS011;11580;52.562;13.418;2022-10-16T01:25:16;1.80;;;1.70;;
22826;SDS011;11580;52.562;13.418;2022-10-16T01:27:52;2.50;;;2.30;;
22826;SDS011;11580;52.562;13.418;2022-10-16T01:30:22;2.00;;;1.90;;
22826;SDS011;11580;52.562;13.418;2022-10-16T01:32:54;1.80;;;1.70;;
22826;SDS011;11580;52.562;13.418;2022-10-16T01:35:27;2.23;;;2.03;;
22826;SDS011;11580;52.562;13.418;2022-10-16T01:38:02;1.73;;;1.63;;
22826;SDS011;11580;52.562;13.418;2022-10-16T01:40:34;1.90;;;1.80;;
22826;SDS011;11580;52.562;13.418;2022-10-16T01:43:07;2.10;;;2.00;;
22826;SDS011;11580;52.562;13.418;2022-10-16T01:45:40;2.37;;;2.20;;
22826;SDS011;11580;52.562;13.418;2022-10-16T01:48:10;1.60;;;1.50;;
22826;SDS011;11580;52.562;13.418;2022-10-16T01:50:41;1.67;;;1.57;;
22826;SDS011;11580;52.562;13.418;2022-10-16T01:53:14;1.90;;;1.80;;
22826;SDS011;11580;52.562;13.418;2022-10-16T01:55:44;2.10;;;2.00;;
22826;SDS011;11580;52.562;13.418;2022-10-16T01:58:16;1.90;;;1.80;;
22826;SDS011;11580;52.562;13.418;2022-10-16T02:00:44;1.70;;;1.60;;
22826;SDS011;11580;52.562;13.418;2022-10-16T02:03:14;2.17;;;2.07;;
22826;SDS011;11580;52.562;13.418;2022-10-16T02:05:46;1.80;;;1.70;;
22826;SDS011;11580;52.562;13.418;2022-10-16T02:08:19;1.80;;;1.70;;
22826;SDS011;11580;52.562;13.418;2022-10-16T02:10:48;2.10;;;2.00;;
22826;SDS011;11580;52.562;13.418;2022-10-16T02:13:18;1.83;;;1.50;;
22826;SDS011;11580;52.562;13.418;2022-10-16T02:15:53;1.80;;;1.70;;
22826;SDS011;11580;52.562;13.418;2022-10-16T02:18:21;1.50;;;1.40;;
22826;SDS011;11580;52.562;13.418;2022-10-16T02:20:50;1.63;;;1.53;;
22826;SDS011;11580;52.562;13.418;2022-10-16T02:23:23;2.03;;;1.93;;
22826;SDS011;11580;52.562;13.418;2022-10-16T02:25:58;1.80;;;1.70;;
22826;SDS011;11580;52.562;13.418;2022-10-16T02:28:33;1.77;;;1.67;;
22826;SDS011;11580;52.562;13.418;2022-10-16T02:31:08;2.10;;;2.00;;
22826;SDS011;11580;52.562;13.418;2022-10-16T02:33:39;1.90;;;1.80;;
22826;SDS011;11580;52.562;13.418;2022-10-16T02:36:10;2.13;;;2.00;;
22826;SDS011;11580;52.562;13.418;2022-10-16T02:38:38;1.87;;;1.77;;
22826;SDS011;11580;52.562;13.418;2022-10-16T02:41:07;1.70;;;1.60;;
22826;SDS011;11580;52.562;13.418;2022-10-16T02:43:36;1.77;;;1.67;;
22826;SDS011;11580;52.562;13.418;2022-10-16T02:46:03;1.80;;;1.70;;
22826;SDS011;11580;52.562;13.418;2022-10-16T02:48:31;1.73;;;1.63;;
22826;SDS011;11580;52.562;13.418;2022-10-16T02:50:58;1.90;;;1.80;;
22826;SDS011;11580;52.562;13.418;2022-10-16T02:53:25;1.50;;;1.40;;
22826;SDS011;11580;52.562;13.418;2022-10-16T02:55:52;1.93;;;1.83;;
22826;SDS011;11580;52.562;13.418;2022-10-16T02:58:19;1.73;;;1.63;;
22826;SDS011;11580;52.562;13.418;2022-10-16T03:00:48;1.70;;;1.60;;
22826;SDS011;11580;52.562;13.418;2022-10-16T03:03:15;1.90;;;1.80;;
22826;SDS011;11580;52.562;13.418;2022-10-16T03:05:42;1.73;;;1.63;;
22826;SDS011;11580;52.562;13.418;2022-10-16T03:08:10;1.70;;;1.60;;
22826;SDS011;11580;52.562;13.418;2022-10-16T03:10:38;1.80;;;1.70;;
22826;SDS011;11580;52.562;13.418;2022-10-16T03:13:05;2.00;;;1.90;;
22826;SDS011;11580;52.562;13.418;2022-10-16T03:15:32;1.80;;;1.70;;
22826;SDS011;11580;52.562;13.418;2022-10-16T03:18:01;2.10;;;2.00;;
22826;SDS011;11580;52.562;13.418;2022-10-16T03:20:28;1.83;;;1.73;;
22826;SDS011;11580;52.562;13.418;2022-10-16T03:22:55;1.70;;;1.60;;
22826;SDS011;11580;52.562;13.418;2022-10-16T03:25:22;1.70;;;1.60;;
22826;SDS011;11580;52.562;13.418;2022-10-16T03:27:49;1.87;;;1.77;;
22826;SDS011;11580;52.562;13.418;2022-10-16T03:30:17;2.40;;;2.23;;
22826;SDS011;11580;52.562;13.418;2022-10-16T03:32:44;1.70;;;1.60;;
22826;SDS011;11580;52.562;13.418;2022-10-16T03:35:13;1.90;;;1.80;;
22826;SDS011;11580;52.562;13.418;2022-10-16T03:37:40;1.97;;;1.87;;
22826;SDS011;11580;52.562;13.418;2022-10-16T03:40:07;1.73;;;1.63;;
22826;SDS011;11580;52.562;13.418;2022-10-16T03:42:35;1.70;;;1.60;;
22826;SDS011;11580;52.562;13.418;2022-10-16T03:45:03;1.80;;;1.70;;
22826;SDS011;11580;52.562;13.418;2022-10-16T03:47:31;1.90;;;1.80;;
22826;SDS011;11580;52.562;13.418;2022-10-16T03:49:58;2.00;;;1.90;;
22826;SDS011;11580;52.562;13.418;2022-10-16T03:52:27;2.33;;;2.23;;
22826;SDS011;11580;52.562;13.418;2022-10-16T03:54:54;1.97;;;1.83;;
22826;SDS011;11580;52.562;13.418;2022-10-16T03:57:22;1.90;;;1.80;;
22826;SDS011;11580;52.562;13.418;2022-10-16T03:59:49;2.10;;;2.00;;
22826;SDS011;11580;52.562;13.418;2022-10-16T04:02:17;1.90;;;1.80;;
22826;SDS011;11580;52.562;13.418;2022-10-16T04:04:44;1.90;;;1.80;;
22826;SDS011;11580;52.562;13.418;2022-10-16T04:07:11;2.23;;;2.03;;
22826;SDS011;11580;52.562;13.418;2022-10-16T04:09:40;3.17;;;2.97;;
22826;SDS011;11580;52.562;13.418;2022-10-16T04:12:07;2.07;;;1.97;;
22826;SDS011;11580;52.562;13.418;2022-10-16T04:14:34;1.90;;;1.80;;
22826;SDS011;11580;52.562;13.418;2022-10-16T04:17:01;2.07;;;1.97;;
22826;SDS011;11580;52.562;13.418;2022-10-16T04:19:28;2.03;;;1.93;;
22826;SDS011;11580;52.562;13.418;2022-10-16T04:21:55;2.07;;;1.97;;
22826;SDS011;11580;52.562;13.418;2022-10-16T04:24:23;2.23;;;2.13;;
22826;SDS011;11580;52.562;13.418;2022-10-16T04:26:51;2.10;;;1.90;;
22826;SDS011;11580;52.562;13.418;2022-10-16T04:29:18;2.20;;;2.10;;
22826;SDS011;11580;52.562;13.418;2022-10-16T04:31:46;2.00;;;1.90;;
22826;SDS011;11580;52.562;13.418;2022-10-16T04:34:13;2.17;;;2.07;;
22826;SDS011;11580;52.562;13.418;2022-10-16T04:36:40;1.83;;;1.73;;
22826;SDS011;11580;52.562;13.418;2022-10-16T04:39:07;2.10;;;1.90;;
22826;SDS011;11580;52.562;13.418;2022-10-16T04:41:35;2.30;;;2.20;;
22826;SDS011;11580;52.562;13.418;2022-10-16T04:44:03;1.97;;;1.87;;
22826;SDS011;11580;52.562;13.418;2022-10-16T04:46:30;2.43;;;2.10;;
22826;SDS011;11580;52.562;13.418;2022-10-16T04:48:58;2.10;;;2.00;;
22826;SDS011;11580;52.562;13.418;2022-10-16T04:51:25;2.10;;;1.90;;
22826;SDS011;11580;52.562;13.418;2022-10-16T04:53:53;2.20;;;2.10;;
22826;SDS011;11580;52.562;13.418;2022-10-16T04:56:20;1.90;;;1.80;;
22826;SDS011;11580;52.562;13.418;2022-10-16T04:58:48;1.93;;;1.83;;
22826;SDS011;11580;52.562;13.418;2022-10-16T05:01:16;2.27;;;2.17;;
22826;SDS011;11580;52.562;13.418;2022-10-16T05:03:43;2.10;;;2.00;;
22826;SDS011;11580;52.562;13.418;2022-10-16T05:06:11;3.40;;;2.43;;
22826;SDS011;11580;52.562;13.418;2022-10-16T05:08:38;2.20;;;2.10;;
22826;SDS011;11580;52.562;13.418;2022-10-16T05:11:06;2.30;;;2.20;;
22826;SDS011;11580;52.562;13.418;2022-10-16T05:13:33;2.20;;;2.10;;
22826;SDS011;11580;52.562;13.418;2022-10-16T05:16:00;2.60;;;2.40;;
22826;SDS011;11580;52.562;13.418;2022-10-16T05:18:28;2.90;;;2.50;;
22826;SDS011;11580;52.562;13.418;2022-10-16T05:20:56;2.70;;;2.60;;
22826;SDS011;11580;52.562;13.418;2022-10-16T05:23:23;2.30;;;2.10;;
22826;SDS011;11580;52.562;13.418;2022-10-16T05:25:53;3.30;;;2.30;;
22826;SDS011;11580;52.562;13.418;2022-10-16T05:28:23;2.07;;;1.97;;
22826;SDS011;11580;52.562;13.418;2022-10-16T05:30:50;2.23;;;2.13;;
22826;SDS011;11580;52.562;13.418;2022-10-16T05:33:19;2.90;;;2.60;;
22826;SDS011;11580;52.562;13.418;2022-10-16T05:35:49;2.10;;;2.00;;
22826;SDS011;11580;52.562;13.418;2022-10-16T05:38:16;3.10;;;2.40;;
22826;SDS011;11580;52.562;13.418;2022-10-16T05:40:44;2.40;;;2.23;;
22826;SDS011;11580;52.562;13.418;2022-10-16T05:43:17;2.07;;;1.93;;
22826;SDS011;11580;52.562;13.418;2022-10-16T05:45:52;2.73;;;2.53;;
22826;SDS011;11580;52.562;13.418;2022-10-16T05:48:21;2.57;;;2.47;;
22826;SDS011;11580;52.562;13.418;2022-10-16T05:50:50;2.50;;;2.33;;
22826;SDS011;11580;52.562;13.418;2022-10-16T05:53:24;2.40;;;2.20;;
22826;SDS011;11580;52.562;13.418;2022-10-16T05:55:52;3.57;;;2.40;;
22826;SDS011;11580;52.562;13.418;2022-10-16T05:58:19;2.93;;;2.73;;
22826;SDS011;11580;52.562;13.418;2022-10-16T06:00:54;3.00;;;2.43;;
22826;SDS011;11580;52.562;13.418;2022-10-16T06:03:21;3.50;;;3.20;;
22826;SDS011;11580;52.562;13.418;2022-10-16T06:05:50;2.87;;;2.67;;
22826;SDS011;11580;52.562;13.418;2022-10-16T06:08:18;3.20;;;3.00;;
22826;SDS011;11580;52.562;13.418;2022-10-16T06:10:48;3.70;;;3.40;;
22826;SDS011;11580;52.562;13.418;2022-10-16T06:13:26;3.80;;;3.40;;
22826;SDS011;11580;52.562;13.418;2022-10-16T06:15:56;3.20;;;2.90;;
22826;SDS011;11580;52.562;13.418;2022-10-16T06:18:24;3.03;;;2.80;;
22826;SDS011;11580;52.562;13.418;2022-10-16T06:20:54;3.27;;;2.97;;
22826;SDS011;11580;52.562;13.418;2022-10-16T06:23:22;2.70;;;2.53;;
22826;SDS011;11580;52.562;13.418;2022-10-16T06:25:49;2.97;;;2.70;;
22826;SDS011;11580;52.562;13.418;2022-10-16T06:28:17;2.57;;;2.37;;
22826;SDS011;11580;52.562;13.418;2022-10-16T06:30:44;2.60;;;2.40;;
22826;SDS011;11580;52.562;13.418;2022-10-16T06:33:12;3.00;;;2.80;;
22826;SDS011;11580;52.562;13.418;2022-10-16T06:35:39;3.00;;;2.60;;
22826;SDS011;11580;52.562;13.418;2022-10-16T06:38:08;2.60;;;2.47;;
22826;SDS011;11580;52.562;13.418;2022-10-16T06:40:35;2.50;;;2.40;;
22826;SDS011;11580;52.562;13.418;2022-10-16T06:43:02;2.70;;;2.50;;
22826;SDS011;11580;52.562;13.418;2022-10-16T06:45:29;3.10;;;2.90;;
22826;SDS011;11580;52.562;13.418;2022-10-16T06:47:57;3.50;;;3.20;;
22826;SDS011;11580;52.562;13.418;2022-10-16T06:50:24;3.00;;;2.80;;
22826;SDS011;11580;52.562;13.418;2022-10-16T06:52:51;3.50;;;3.30;;
22826;SDS011;11580;52.562;13.418;2022-10-16T06:55:20;5.30;;;2.37;;
22826;SDS011;11580;52.562;13.418;2022-10-16T06:57:47;2.97;;;2.77;;
22826;SDS011;11580;52.562;13.418;2022-10-16T07:00:14;3.27;;;2.97;;
22826;SDS011;11580;52.562;13.418;2022-10-16T07:02:42;3.03;;;2.83;;
22826;SDS011;11580;52.562;13.418;2022-10-16T07:05:09;3.70;;;3.40;;
22826;SDS011;11580;52.562;13.418;2022-10-16T07:07:36;3.30;;;3.03;;
22826;SDS011;11580;52.562;13.418;2022-10-16T07:10:03;3.17;;;2.93;;
22826;SDS011;11580;52.562;13.418;2022-10-16T07:12:32;3.30;;;3.00;;
22826;SDS011;11580;52.562;13.418;2022-10-16T07:15:00;3.53;;;2.73;;
22826;SDS011;11580;52.562;13.418;2022-10-16T07:17:27;2.50;;;2.33;;
22826;SDS011;11580;52.562;13.418;2022-10-16T07:19:54;2.23;;;2.13;;
22826;SDS011;11580;52.562;13.418;2022-10-16T07:22:21;2.77;;;2.57;;
22826;SDS011;11580;52.562;13.418;2022-10-16T07:24:48;3.27;;;2.17;;
22826;SDS011;11580;52.562;13.418;2022-10-16T07:27:16;2.07;;;1.97;;
22826;SDS011;11580;52.562;13.418;2022-10-16T07:29:45;2.70;;;2.50;;
22826;SDS011;11580;52.562;13.418;2022-10-16T07:32:12;2.43;;;2.33;;
22826;SDS011;11580;52.562;13.418;2022-10-16T07:34:39;3.87;;;2.40;;
22826;SDS011;11580;52.562;13.418;2022-10-16T07:37:07;2.23;;;2.03;;
22826;SDS011;11580;52.562;13.418;2022-10-16T07:39:34;2.10;;;2.00;;
22826;SDS011;11580;52.562;13.418;2022-10-16T07:42:01;2.20;;;2.00;;
22826;SDS011;11580;52.562;13.418;2022-10-16T07:44:28;2.50;;;2.40;;
22826;SDS011;11580;52.562;13.418;2022-10-16T07:46:57;3.10;;;2.67;;
22826;SDS011;11580;52.562;13.418;2022-10-16T07:49:24;2.80;;;2.60;;
22826;SDS011;11580;52.562;13.418;2022-10-16T07:51:51;2.67;;;2.47;;
22826;SDS011;11580;52.562;13.418;2022-10-16T07:54:18;2.00;;;1.90;;
22826;SDS011;11580;52.562;13.418;2022-10-16T07:56:46;2.43;;;2.20;;
22826;SDS011;11580;52.562;13.418;2022-10-16T07:59:13;1.90;;;1.80;;
22826;SDS011;11580;52.562;13.418;2022-10-16T08:01:40;1.80;;;1.70;;
22826;SDS011;11580;52.562;13.418;2022-10-16T08:04:09;2.07;;;1.90;;
22826;SDS011;11580;52.562;13.418;2022-10-16T08:06:37;2.10;;;2.00;;
22826;SDS011;11580;52.562;13.418;2022-10-16T08:09:06;2.07;;;1.97;;
22826;SDS011;11580;52.562;13.418;2022-10-16T08:11:35;1.80;;;1.70;;
22826;SDS011;11580;52.562;13.418;2022-10-16T08:14:02;1.83;;;1.73;;
22826;SDS011;11580;52.562;13.418;2022-10-16T08:16:29;1.70;;;1.60;;
22826;SDS011;11580;52.562;13.418;2022-10-16T08:18:56;1.50;;;1.40;;
22826;SDS011;11580;52.562;13.418;2022-10-16T08:21:24;1.50;;;1.40;;
22826;SDS011;11580;52.562;13.418;2022-10-16T08:23:52;1.53;;;1.43;;
22826;SDS011;11580;52.562;13.418;2022-10-16T08:26:21;1.63;;;1.50;;
22826;SDS011;11580;52.562;13.418;2022-10-16T08:28:49;1.90;;;1.80;;
22826;SDS011;11580;52.562;13.418;2022-10-16T08:31:16;1.73;;;1.47;;
22826;SDS011;11580;52.562;13.418;2022-10-16T08:33:44;1.97;;;1.60;;
22826;SDS011;11580;52.562;13.418;2022-10-16T08:36:13;2.17;;;1.97;;
22826;SDS011;11580;52.562;13.418;2022-10-16T08:38:43;1.63;;;1.53;;
22826;SDS011;11580;52.562;13.418;2022-10-16T08:41:17;2.07;;;1.80;;
22826;SDS011;11580;52.562;13.418;2022-10-16T08:44:07;1.80;;;1.70;;
22826;SDS011;11580;52.562;13.418;2022-10-16T08:46:58;2.23;;;1.60;;
22826;SDS011;11580;52.562;13.418;2022-10-16T08:49:36;1.83;;;1.63;;
22826;SDS011;11580;52.562;13.418;2022-10-16T08:52:08;1.80;;;1.70;;
22826;SDS011;11580;52.562;13.418;2022-10-16T08:54:42;1.63;;;1.53;;
22826;SDS011;11580;52.562;13.418;2022-10-16T08:57:16;1.97;;;1.77;;
22826;SDS011;11580;52.562;13.418;2022-10-16T08:59:47;2.13;;;2.03;;
22826;SDS011;11580;52.562;13.418;2022-10-16T09:02:19;1.70;;;1.40;;
22826;SDS011;11580;52.562;13.418;2022-10-16T09:07:55;1.57;;;1.47;;
22826;SDS011;11580;52.562;13.418;2022-10-16T09:10:39;3.13;;;1.83;;
22826;SDS011;11580;52.562;13.418;2022-10-16T09:13:23;1.67;;;1.57;;
22826;SDS011;11580;52.562;13.418;2022-10-16T09:15:59;1.60;;;1.40;;
22826;SDS011;11580;52.562;13.418;2022-10-16T09:18:41;1.90;;;1.80;;
22826;SDS011;11580;52.562;13.418;2022-10-16T09:21:16;1.67;;;1.57;;
22826;SDS011;11580;52.562;13.418;2022-10-16T09:23:49;1.93;;;1.83;;
22826;SDS011;11580;52.562;13.418;2022-10-16T09:26:18;1.53;;;1.40;;
22826;SDS011;11580;52.562;13.418;2022-10-16T09:28:47;2.00;;;1.70;;
22826;SDS011;11580;52.562;13.418;2022-10-16T09:31:18;1.70;;;1.60;;
22826;SDS011;11580;52.562;13.418;2022-10-16T09:33:48;1.47;;;1.37;;
22826;SDS011;11580;52.562;13.418;2022-10-16T09:36:20;1.60;;;1.50;;
22826;SDS011;11580;52.562;13.418;2022-10-16T09:39:01;1.40;;;1.30;;
22826;SDS011;11580;52.562;13.418;2022-10-16T09:41:33;2.77;;;1.50;;
22826;SDS011;11580;52.562;13.418;2022-10-16T09:44:03;2.30;;;1.70;;
22826;SDS011;11580;52.562;13.418;2022-10-16T09:46:45;1.63;;;1.53;;
22826;SDS011;11580;52.562;13.418;2022-10-16T09:49:20;1.60;;;1.50;;
22826;SDS011;11580;52.562;13.418;2022-10-16T09:51:50;1.57;;;1.47;;
22826;SDS011;11580;52.562;13.418;2022-10-16T09:54:29;1.60;;;1.50;;
22826;SDS011;11580;52.562;13.418;2022-10-16T09:57:05;1.70;;;1.60;;
22826;SDS011;11580;52.562;13.418;2022-10-16T09:59:33;2.63;;;1.97;;
22826;SDS011;11580;52.562;13.418;2022-10-16T10:02:01;1.50;;;1.40;;
22826;SDS011;11580;52.562;13.418;2022-10-16T10:04:37;1.70;;;1.60;;
22826;SDS011;11580;52.562;13.418;2022-10-16T10:07:16;1.93;;;1.83;;
22826;SDS011;11580;52.562;13.418;2022-10-16T10:09:47;1.70;;;1.60;;
22826;SDS011;11580;52.562;13.418;2022-10-16T10:12:18;1.80;;;1.70;;
22826;SDS011;11580;52.562;13.418;2022-10-16T10:14:49;1.60;;;1.50;;
22826;SDS011;11580;52.562;13.418;2022-10-16T10:17:19;1.80;;;1.70;;
22826;SDS011;11580;52.562;13.418;2022-10-16T10:19:49;1.80;;;1.70;;
22826;SDS011;11580;52.562;13.418;2022-10-16T10:22:30;1.60;;;1.50;;
22826;SDS011;11580;52.562;13.418;2022-10-16T10:28:21;1.70;;;1.60;;
22826;SDS011;11580;52.562;13.418;2022-10-16T10:31:14;1.87;;;1.63;;
22826;SDS011;11580;52.562;13.418;2022-10-16T10:33:52;2.23;;;2.03;;
22826;SDS011;11580;52.562;13.418;2022-10-16T10:36:29;1.20;;;1.20;;
22826;SDS011;11580;52.562;13.418;2022-10-16T10:39:00;1.80;;;1.70;;
22826;SDS011;11580;52.562;13.418;2022-10-16T10:41:49;2.00;;;1.80;;
22826;SDS011;11580;52.562;13.418;2022-10-16T10:47:47;1.87;;;1.77;;
22826;SDS011;11580;52.562;13.418;2022-10-16T10:50:29;1.60;;;1.30;;
22826;SDS011;11580;52.562;13.418;2022-10-16T10:53:07;1.70;;;1.60;;
22826;SDS011;11580;52.562;13.418;2022-10-16T10:55:59;1.73;;;1.40;;
22826;SDS011;11580;52.562;13.418;2022-10-16T10:58:51;1.30;;;1.20;;
22826;SDS011;11580;52.562;13.418;2022-10-16T11:01:50;1.30;;;1.30;;
22826;SDS011;11580;52.562;13.418;2022-10-16T11:04:38;1.80;;;1.27;;
22826;SDS011;11580;52.562;13.418;2022-10-16T11:07:44;1.40;;;1.30;;
22826;SDS011;11580;52.562;13.418;2022-10-16T11:10:18;1.60;;;1.50;;
22826;SDS011;11580;52.562;13.418;2022-10-16T11:12:52;1.70;;;1.60;;
22826;SDS011;11580;52.562;13.418;2022-10-16T11:15:25;1.73;;;1.40;;
22826;SDS011;11580;52.562;13.418;2022-10-16T11:18:00;1.50;;;1.40;;
22826;SDS011;11580;52.562;13.418;2022-10-16T11:20:34;2.93;;;1.60;;
22826;SDS011;11580;52.562;13.418;2022-10-16T11:23:11;1.10;;;1.10;;
22826;SDS011;11580;52.562;13.418;2022-10-16T11:25:44;1.60;;;1.50;;
22826;SDS011;11580;52.562;13.418;2022-10-16T11:28:14;1.40;;;1.10;;
22826;SDS011;11580;52.562;13.418;2022-10-16T11:30:46;1.33;;;1.23;;
22826;SDS011;11580;52.562;13.418;2022-10-16T11:33:27;1.30;;;1.20;;
22826;SDS011;11580;52.562;13.418;2022-10-16T11:36:03;1.50;;;1.40;;
22826;SDS011;11580;52.562;13.418;2022-10-16T11:38:42;1.00;;;1.00;;
22826;SDS011;11580;52.562;13.418;2022-10-16T11:41:21;1.30;;;1.20;;
22826;SDS011;11580;52.562;13.418;2022-10-16T11:44:06;1.40;;;1.30;;
22826;SDS011;11580;52.562;13.418;2022-10-16T11:46:48;1.00;;;1.00;;
22826;SDS011;11580;52.562;13.418;2022-10-16T11:49:29;1.33;;;1.23;;
22826;SDS011;11580;52.562;13.418;2022-10-16T11:52:00;1.30;;;1.00;;
22826;SDS011;11580;52.562;13.418;2022-10-16T11:54:44;1.73;;;1.40;;
22826;SDS011;11580;52.562;13.418;2022-10-16T11:57:18;1.67;;;1.57;;
22826;SDS011;11580;52.562;13.418;2022-10-16T11:59:51;1.50;;;1.40;;
22826;SDS011;11580;52.562;13.418;2022-10-16T12:02:30;1.53;;;1.43;;
22826;SDS011;11580;52.562;13.418;2022-10-16T12:05:18;1.50;;;1.40;;
22826;SDS011;11580;52.562;13.418;2022-10-16T12:07:59;1.63;;;1.53;;
22826;SDS011;11580;52.562;13.418;2022-10-16T12:10:36;0.90;;;0.90;;
22826;SDS011;11580;52.562;13.418;2022-10-16T12:13:25;1.20;;;1.20;;
22826;SDS011;11580;52.562;13.418;2022-10-16T12:16:08;0.80;;;0.80;;
22826;SDS011;11580;52.562;13.418;2022-10-16T12:18:49;1.33;;;1.23;;
22826;SDS011;11580;52.562;13.418;2022-10-16T12:21:39;1.47;;;1.10;;
22826;SDS011;11580;52.562;13.418;2022-10-16T12:24:18;1.47;;;1.10;;
22826;SDS011;11580;52.562;13.418;2022-10-16T12:26:54;1.30;;;1.23;;
22826;SDS011;11580;52.562;13.418;2022-10-16T12:29:23;1.10;;;1.00;;
22826;SDS011;11580;52.562;13.418;2022-10-16T12:32:00;1.20;;;1.10;;
22826;SDS011;11580;52.562;13.418;2022-10-16T12:34:36;1.00;;;1.00;;
22826;SDS011;11580;52.562;13.418;2022-10-16T12:37:11;1.87;;;0.90;;
22826;SDS011;11580;52.562;13.418;2022-10-16T12:39:46;1.00;;;0.90;;
22826;SDS011;11580;52.562;13.418;2022-10-16T12:42:22;1.80;;;1.10;;
22826;SDS011;11580;52.562;13.418;2022-10-16T12:44:59;0.80;;;0.80;;
22826;SDS011;11580;52.562;13.418;2022-10-16T12:47:47;0.90;;;0.90;;
22826;SDS011;11580;52.562;13.418;2022-10-16T12:50:23;1.43;;;1.10;;
22826;SDS011;11580;52.562;13.418;2022-10-16T12:52:57;1.23;;;1.13;;
22826;SDS011;11580;52.562;13.418;2022-10-16T12:55:25;0.87;;;0.87;;
22826;SDS011;11580;52.562;13.418;2022-10-16T12:58:03;2.07;;;1.00;;
22826;SDS011;11580;52.562;13.418;2022-10-16T13:00:56;1.00;;;1.00;;
22826;SDS011;11580;52.562;13.418;2022-10-16T13:03:36;0.70;;;0.70;;
22826;SDS011;11580;52.562;13.418;2022-10-16T13:06:33;1.53;;;1.00;;
22826;SDS011;11580;52.562;13.418;2022-10-16T13:09:19;0.87;;;0.83;;
22826;SDS011;11580;52.562;13.418;2022-10-16T13:12:06;0.63;;;0.63;;
22826;SDS011;11580;52.562;13.418;2022-10-16T13:15:00;0.80;;;0.80;;
22826;SDS011;11580;52.562;13.418;2022-10-16T13:17:47;0.80;;;0.80;;
22826;SDS011;11580;52.562;13.418;2022-10-16T13:20:28;1.13;;;1.00;;
22826;SDS011;11580;52.562;13.418;2022-10-16T13:23:04;0.90;;;0.90;;
22826;SDS011;11580;52.562;13.418;2022-10-16T13:25:46;1.80;;;1.20;;
22826;SDS011;11580;52.562;13.418;2022-10-16T13:28:30;0.87;;;0.87;;
22826;SDS011;11580;52.562;13.418;2022-10-16T13:31:01;0.83;;;0.83;;
22826;SDS011;11580;52.562;13.418;2022-10-16T13:33:31;1.07;;;1.00;;
22826;SDS011;11580;52.562;13.418;2022-10-16T13:36:01;1.00;;;1.00;;
22826;SDS011;11580;52.562;13.418;2022-10-16T13:38:30;1.03;;;0.93;;
22826;SDS011;11580;52.562;13.418;2022-10-16T13:41:02;0.87;;;0.87;;
22826;SDS011;11580;52.562;13.418;2022-10-16T13:43:32;0.90;;;0.80;;
22826;SDS011;11580;52.562;13.418;2022-10-16T13:46:04;0.93;;;0.90;;
22826;SDS011;11580;52.562;13.418;2022-10-16T13:48:33;0.90;;;0.80;;
22826;SDS011;11580;52.562;13.418;2022-10-16T13:51:02;0.90;;;0.90;;
22826;SDS011;11580;52.562;13.418;2022-10-16T13:53:32;1.13;;;1.03;;
22826;SDS011;11580;52.562;13.418;2022-10-16T13:56:03;1.13;;;1.07;;
22826;SDS011;11580;52.562;13.418;2022-10-16T13:58:33;1.03;;;0.90;;
22826;SDS011;11580;52.562;13.418;2022-10-16T14:01:00;0.80;;;0.80;;
22826;SDS011;11580;52.562;13.418;2022-10-16T14:03:32;1.07;;;1.07;;
22826;SDS011;11580;52.562;13.418;2022-10-16T14:06:02;1.30;;;1.00;;
22826;SDS011;11580;52.562;13.418;2022-10-16T14:08:40;1.20;;;1.10;;
22826;SDS011;11580;52.562;13.418;2022-10-16T14:11:13;1.30;;;1.20;;
22826;SDS011;11580;52.562;13.418;2022-10-16T14:13:49;1.10;;;1.00;;
22826;SDS011;11580;52.562;13.418;2022-10-16T14:16:18;0.70;;;0.67;;
22826;SDS011;11580;52.562;13.418;2022-10-16T14:18:50;2.00;;;0.80;;
22826;SDS011;11580;52.562;13.418;2022-10-16T14:21:25;0.93;;;0.90;;
22826;SDS011;11580;52.562;13.418;2022-10-16T14:23:53;1.07;;;0.97;;
22826;SDS011;11580;52.562;13.418;2022-10-16T14:26:23;1.07;;;0.80;;
22826;SDS011;11580;52.562;13.418;2022-10-16T14:29:10;1.27;;;0.83;;
22826;SDS011;11580;52.562;13.418;2022-10-16T14:31:40;1.10;;;0.90;;
22826;SDS011;11580;52.562;13.418;2022-10-16T14:34:24;2.13;;;1.07;;
22826;SDS011;11580;52.562;13.418;2022-10-16T14:36:54;1.10;;;1.00;;
22826;SDS011;11580;52.562;13.418;2022-10-16T14:39:22;0.97;;;0.97;;
22826;SDS011;11580;52.562;13.418;2022-10-16T14:41:54;1.17;;;1.07;;
22826;SDS011;11580;52.562;13.418;2022-10-16T14:44:26;1.40;;;1.30;;
22826;SDS011;11580;52.562;13.418;2022-10-16T14:46:58;1.10;;;1.00;;
22826;SDS011;11580;52.562;13.418;2022-10-16T14:49:40;1.03;;;1.00;;
22826;SDS011;11580;52.562;13.418;2022-10-16T14:52:08;1.10;;;1.00;;
22826;SDS011;11580;52.562;13.418;2022-10-16T14:54:38;1.00;;;1.00;;
22826;SDS011;11580;52.562;13.418;2022-10-16T14:57:14;0.90;;;0.90;;
22826;SDS011;11580;52.562;13.418;2022-10-16T14:59:45;1.00;;;1.00;;
22826;SDS011;11580;52.562;13.418;2022-10-16T15:02:16;1.10;;;1.00;;
22826;SDS011;11580;52.562;13.418;2022-10-16T15:04:53;1.50;;;1.03;;
22826;SDS011;11580;52.562;13.418;2022-10-16T15:07:21;1.20;;;1.10;;
22826;SDS011;11580;52.562;13.418;2022-10-16T15:09:48;1.30;;;1.20;;
22826;SDS011;11580;52.562;13.418;2022-10-16T15:12:18;0.87;;;0.87;;